sensor_id;sensor_type;location;lat;lon;timestamp;pressure;altitude;pressure_sealevel;temperature;humidity
77572;BME280;67214;47.454;18.966;2023-06-04T00:00:20;100474.77;;;11.98;69.32
77572;BME280;67214;47.454;18.966;2023-06-04T00:02:48;100490.09;;;12.00;68.43
77572;BME280;67214;47.454;18.966;2023-06-04T00:05:15;100495.45;;;11.89;68.69
77572;BME280;67214;47.454;18.966;2023-06-04T00:07:43;100489.39;;;11.87;68.03
77572;BME280;67214;47.454;18.966;2023-06-04T00:10:10;100495.19;;;11.92;67.11
77572;BME280;67214;47.454;18.966;2023-06-04T00:12:38;100481.20;;;11.84;67.58
77572;BME280;67214;47.454;18.966;2023-06-04T00:15:06;100488.34;;;11.73;68.09
77572;BME280;67214;47.454;18.966;2023-06-04T00:17:33;100499.41;;;11.66;67.28
77572;BME280;67214;47.454;18.966;2023-06-04T00:20:01;100500.52;;;11.64;67.53
77572;BME280;67214;47.454;18.966;2023-06-04T00:22:29;100501.58;;;11.61;67.84
77572;BME280;67214;47.454;18.966;2023-06-04T00:24:56;100494.71;;;11.59;68.56
77572;BME280;67214;47.454;18.966;2023-06-04T00:27:23;100493.27;;;11.60;68.64
77572;BME280;67214;47.454;18.966;2023-06-04T00:29:51;100492.42;;;11.60;69.05
77572;BME280;67214;47.454;18.966;2023-06-04T00:32:18;100491.69;;;11.58;68.58
77572;BME280;67214;47.454;18.966;2023-06-04T00:34:53;100485.53;;;11.63;68.54
77572;BME280;67214;47.454;18.966;2023-06-04T00:37:27;100475.64;;;11.59;69.48
77572;BME280;67214;47.454;18.966;2023-06-04T00:39:49;100476.25;;;11.85;69.15
77572;BME280;67214;47.454;18.966;2023-06-04T00:42:17;100472.52;;;11.77;68.47
77572;BME280;67214;47.454;18.966;2023-06-04T00:44:45;100481.55;;;11.69;68.94
77572;BME280;67214;47.454;18.966;2023-06-04T00:47:15;100491.58;;;11.59;69.23
77572;BME280;67214;47.454;18.966;2023-06-04T00:49:42;100478.16;;;11.66;69.01
77572;BME280;67214;47.454;18.966;2023-06-04T00:52:12;100477.93;;;11.64;68.93
77572;BME280;67214;47.454;18.966;2023-06-04T00:54:39;100483.36;;;11.68;69.25
77572;BME280;67214;47.454;18.966;2023-06-04T00:57:07;100483.51;;;11.72;68.49
77572;BME280;67214;47.454;18.966;2023-06-04T00:59:39;100487.72;;;11.80;68.63
77572;BME280;67214;47.454;18.966;2023-06-04T01:02:18;100483.00;;;11.84;68.29
77572;BME280;67214;47.454;18.966;2023-06-04T01:07:57;100483.82;;;11.95;67.31
77572;BME280;67214;47.454;18.966;2023-06-04T01:10:24;100468.98;;;11.93;68.01
77572;BME280;67214;47.454;18.966;2023-06-04T01:12:52;100479.36;;;12.01;68.40
77572;BME280;67214;47.454;18.966;2023-06-04T01:15:19;100477.40;;;12.03;68.78
77572;BME280;67214;47.454;18.966;2023-06-04T01:17:49;100463.84;;;12.06;69.12
77572;BME280;67214;47.454;18.966;2023-06-04T01:20:26;100466.82;;;12.24;67.98
77572;BME280;67214;47.454;18.966;2023-06-04T01:25:41;100479.42;;;12.11;68.40
77572;BME280;67214;47.454;18.966;2023-06-04T01:28:11;100480.68;;;12.01;68.57
77572;BME280;67214;47.454;18.966;2023-06-04T01:30:41;100475.00;;;11.95;68.33
77572;BME280;67214;47.454;18.966;2023-06-04T01:33:18;100480.69;;;11.96;67.92
77572;BME280;67214;47.454;18.966;2023-06-04T01:35:47;100480.20;;;11.96;67.27
77572;BME280;67214;47.454;18.966;2023-06-04T01:38:14;100491.65;;;12.02;68.25
77572;BME280;67214;47.454;18.966;2023-06-04T01:40:42;100490.20;;;12.04;68.50
77572;BME280;67214;47.454;18.966;2023-06-04T01:43:09;100486.00;;;12.01;68.52
77572;BME280;67214;47.454;18.966;2023-06-04T01:45:37;100494.56;;;12.05;69.07
77572;BME280;67214;47.454;18.966;2023-06-04T01:48:05;100486.26;;;11.93;69.25
77572;BME280;67214;47.454;18.966;2023-06-04T01:50:33;100483.26;;;11.81;69.92
77572;BME280;67214;47.454;18.966;2023-06-04T01:53:00;100482.66;;;11.72;70.04
77572;BME280;67214;47.454;18.966;2023-06-04T01:55:28;100490.73;;;11.64;69.99
77572;BME280;67214;47.454;18.966;2023-06-04T01:57:57;100487.83;;;11.68;70.03
77572;BME280;67214;47.454;18.966;2023-06-04T02:00:24;100486.16;;;11.61;70.53
77572;BME280;67214;47.454;18.966;2023-06-04T02:02:52;100482.65;;;11.60;69.52
77572;BME280;67214;47.454;18.966;2023-06-04T02:05:21;100483.13;;;11.65;69.15
77572;BME280;67214;47.454;18.966;2023-06-04T02:07:49;100490.38;;;11.69;68.37
77572;BME280;67214;47.454;18.966;2023-06-04T02:10:19;100496.05;;;11.64;69.44
77572;BME280;67214;47.454;18.966;2023-06-04T02:13:01;100491.70;;;11.63;69.79
77572;BME280;67214;47.454;18.966;2023-06-04T02:15:31;100493.14;;;11.68;69.42
77572;BME280;67214;47.454;18.966;2023-06-04T02:18:11;100486.85;;;11.57;69.91
77572;BME280;67214;47.454;18.966;2023-06-04T02:20:29;100500.02;;;11.53;69.57
77572;BME280;67214;47.454;18.966;2023-06-04T02:22:56;100497.36;;;11.53;69.86
77572;BME280;67214;47.454;18.966;2023-06-04T02:25:24;100506.08;;;11.44;70.39
77572;BME280;67214;47.454;18.966;2023-06-04T02:27:51;100501.72;;;11.43;70.29
77572;BME280;67214;47.454;18.966;2023-06-04T02:30:19;100500.64;;;11.40;70.91
77572;BME280;67214;47.454;18.966;2023-06-04T02:32:47;100500.15;;;11.35;71.21
77572;BME280;67214;47.454;18.966;2023-06-04T02:35:16;100514.02;;;11.50;70.63
77572;BME280;67214;47.454;18.966;2023-06-04T02:37:45;100498.20;;;11.37;70.54
77572;BME280;67214;47.454;18.966;2023-06-04T02:40:12;100489.17;;;11.29;70.65
77572;BME280;67214;47.454;18.966;2023-06-04T02:42:40;100498.70;;;11.31;71.45
77572;BME280;67214;47.454;18.966;2023-06-04T02:45:08;100472.88;;;11.44;71.66
77572;BME280;67214;47.454;18.966;2023-06-04T02:47:35;100480.34;;;11.34;71.39
77572;BME280;67214;47.454;18.966;2023-06-04T02:50:03;100487.48;;;11.28;71.66
77572;BME280;67214;47.454;18.966;2023-06-04T02:52:31;100496.75;;;11.22;71.47
77572;BME280;67214;47.454;18.966;2023-06-04T02:54:59;100490.73;;;11.20;71.88
77572;BME280;67214;47.454;18.966;2023-06-04T02:57:28;100494.93;;;11.17;71.95
77572;BME280;67214;47.454;18.966;2023-06-04T02:59:56;100495.55;;;11.26;72.17
77572;BME280;67214;47.454;18.966;2023-06-04T03:02:24;100491.95;;;11.33;71.25
77572;BME280;67214;47.454;18.966;2023-06-04T03:04:52;100492.17;;;11.30;69.78
77572;BME280;67214;47.454;18.966;2023-06-04T03:07:21;100499.78;;;11.23;69.86
77572;BME280;67214;47.454;18.966;2023-06-04T03:09:49;100486.98;;;11.23;70.00
77572;BME280;67214;47.454;18.966;2023-06-04T03:12:17;100505.20;;;11.16;69.68
77572;BME280;67214;47.454;18.966;2023-06-04T03:14:44;100504.12;;;11.18;70.35
77572;BME280;67214;47.454;18.966;2023-06-04T03:17:12;100494.59;;;11.16;70.56
77572;BME280;67214;47.454;18.966;2023-06-04T03:19:41;100497.59;;;11.11;70.73
77572;BME280;67214;47.454;18.966;2023-06-04T03:22:09;100505.55;;;11.17;70.92
77572;BME280;67214;47.454;18.966;2023-06-04T03:24:39;100505.20;;;11.16;70.50
77572;BME280;67214;47.454;18.966;2023-06-04T03:27:08;100503.74;;;11.17;70.70
77572;BME280;67214;47.454;18.966;2023-06-04T03:29:37;100513.62;;;11.10;71.38
77572;BME280;67214;47.454;18.966;2023-06-04T03:32:05;100508.59;;;11.12;71.10
77572;BME280;67214;47.454;18.966;2023-06-04T03:34:32;100512.45;;;11.19;71.46
77572;BME280;67214;47.454;18.966;2023-06-04T03:37:00;100513.67;;;11.32;71.24
77572;BME280;67214;47.454;18.966;2023-06-04T03:39:27;100515.34;;;11.33;71.52
77572;BME280;67214;47.454;18.966;2023-06-04T03:41:55;100523.32;;;11.28;71.07
77572;BME280;67214;47.454;18.966;2023-06-04T03:44:22;100525.96;;;11.33;71.75
77572;BME280;67214;47.454;18.966;2023-06-04T03:46:50;100519.70;;;11.34;71.87
77572;BME280;67214;47.454;18.966;2023-06-04T03:49:17;100510.29;;;11.47;72.20
77572;BME280;67214;47.454;18.966;2023-06-04T03:51:45;100522.62;;;11.64;71.10
77572;BME280;67214;47.454;18.966;2023-06-04T03:54:13;100510.63;;;11.70;71.20
77572;BME280;67214;47.454;18.966;2023-06-04T03:56:44;100509.67;;;11.99;71.27
77572;BME280;67214;47.454;18.966;2023-06-04T03:59:12;100515.20;;;12.07;71.48
77572;BME280;67214;47.454;18.966;2023-06-04T04:01:39;100526.13;;;11.93;70.14
77572;BME280;67214;47.454;18.966;2023-06-04T04:04:07;100526.72;;;11.96;70.25
77572;BME280;67214;47.454;18.966;2023-06-04T04:06:34;100534.47;;;11.94;70.58
77572;BME280;67214;47.454;18.966;2023-06-04T04:09:03;100536.88;;;11.97;70.38
77572;BME280;67214;47.454;18.966;2023-06-04T04:11:33;100526.50;;;11.94;70.79
77572;BME280;67214;47.454;18.966;2023-06-04T04:14:01;100532.77;;;11.93;71.19
77572;BME280;67214;47.454;18.966;2023-06-04T04:16:28;100538.09;;;11.93;71.55
77572;BME280;67214;47.454;18.966;2023-06-04T04:18:56;100538.28;;;12.18;71.08
77572;BME280;67214;47.454;18.966;2023-06-04T04:21:23;100532.94;;;12.29;69.88
77572;BME280;67214;47.454;18.966;2023-06-04T04:23:51;100530.81;;;12.43;69.87
77572;BME280;67214;47.454;18.966;2023-06-04T04:26:19;100521.38;;;12.50;70.32
77572;BME280;67214;47.454;18.966;2023-06-04T04:28:46;100524.38;;;12.57;69.60
77572;BME280;67214;47.454;18.966;2023-06-04T04:31:14;100535.91;;;12.73;69.79
77572;BME280;67214;47.454;18.966;2023-06-04T04:33:41;100523.72;;;12.70;68.66
77572;BME280;67214;47.454;18.966;2023-06-04T04:36:09;100538.19;;;12.77;67.37
77572;BME280;67214;47.454;18.966;2023-06-04T04:38:38;100540.69;;;12.84;66.42
77572;BME280;67214;47.454;18.966;2023-06-04T04:41:06;100538.58;;;12.99;65.98
77572;BME280;67214;47.454;18.966;2023-06-04T04:43:36;100544.15;;;13.22;64.60
77572;BME280;67214;47.454;18.966;2023-06-04T04:46:07;100548.43;;;13.49;62.18
77572;BME280;67214;47.454;18.966;2023-06-04T04:48:34;100537.69;;;13.76;60.72
77572;BME280;67214;47.454;18.966;2023-06-04T04:51:02;100533.83;;;13.89;61.65
77572;BME280;67214;47.454;18.966;2023-06-04T04:53:29;100530.28;;;14.04;61.77
77572;BME280;67214;47.454;18.966;2023-06-04T04:55:57;100535.56;;;14.19;61.75
77572;BME280;67214;47.454;18.966;2023-06-04T04:58:25;100538.83;;;14.32;60.99
77572;BME280;67214;47.454;18.966;2023-06-04T05:00:52;100544.63;;;14.47;60.69
77572;BME280;67214;47.454;18.966;2023-06-04T05:03:19;100542.34;;;14.58;61.51
77572;BME280;67214;47.454;18.966;2023-06-04T05:05:47;100545.78;;;14.73;60.55
77572;BME280;67214;47.454;18.966;2023-06-04T05:08:14;100540.94;;;14.82;59.21
77572;BME280;67214;47.454;18.966;2023-06-04T05:10:42;100536.42;;;14.93;61.40
77572;BME280;67214;47.454;18.966;2023-06-04T05:13:09;100548.24;;;15.00;62.05
77572;BME280;67214;47.454;18.966;2023-06-04T05:15:37;100542.25;;;15.11;60.95
77572;BME280;67214;47.454;18.966;2023-06-04T05:18:06;100543.35;;;15.18;60.72
77572;BME280;67214;47.454;18.966;2023-06-04T05:20:34;100553.31;;;15.26;61.02
77572;BME280;67214;47.454;18.966;2023-06-04T05:23:04;100552.16;;;15.38;60.52
77572;BME280;67214;47.454;18.966;2023-06-04T05:25:31;100560.17;;;15.48;59.41
77572;BME280;67214;47.454;18.966;2023-06-04T05:27:59;100565.37;;;15.59;60.41
77572;BME280;67214;47.454;18.966;2023-06-04T05:30:26;100568.21;;;15.71;58.85
77572;BME280;67214;47.454;18.966;2023-06-04T05:32:53;100561.01;;;15.81;58.94
77572;BME280;67214;47.454;18.966;2023-06-04T05:35:21;100558.93;;;15.89;53.36
77572;BME280;67214;47.454;18.966;2023-06-04T05:37:48;100566.75;;;16.00;54.09
77572;BME280;67214;47.454;18.966;2023-06-04T05:40:17;100562.66;;;16.05;56.03
77572;BME280;67214;47.454;18.966;2023-06-04T05:42:45;100557.89;;;16.13;56.12
77572;BME280;67214;47.454;18.966;2023-06-04T05:45:12;100558.73;;;16.13;51.89
77572;BME280;67214;47.454;18.966;2023-06-04T05:47:40;100564.46;;;16.18;52.18
77572;BME280;67214;47.454;18.966;2023-06-04T05:50:08;100556.03;;;16.27;51.12
77572;BME280;67214;47.454;18.966;2023-06-04T05:52:36;100558.56;;;16.42;52.92
77572;BME280;67214;47.454;18.966;2023-06-04T05:55:04;100560.11;;;16.58;52.39
77572;BME280;67214;47.454;18.966;2023-06-04T05:57:33;100554.87;;;16.70;51.82
77572;BME280;67214;47.454;18.966;2023-06-04T06:00:01;100556.98;;;16.85;49.40
77572;BME280;67214;47.454;18.966;2023-06-04T06:02:28;100547.33;;;16.92;47.00
77572;BME280;67214;47.454;18.966;2023-06-04T06:04:57;100559.03;;;17.08;47.78
77572;BME280;67214;47.454;18.966;2023-06-04T06:07:25;100545.72;;;17.20;47.20
77572;BME280;67214;47.454;18.966;2023-06-04T06:09:52;100554.91;;;17.36;47.89
77572;BME280;67214;47.454;18.966;2023-06-04T06:12:20;100547.78;;;17.48;46.04
77572;BME280;67214;47.454;18.966;2023-06-04T06:14:47;100549.37;;;17.59;45.86
77572;BME280;67214;47.454;18.966;2023-06-04T06:17:14;100553.03;;;17.84;45.04
77572;BME280;67214;47.454;18.966;2023-06-04T06:19:42;100550.06;;;17.99;43.83
77572;BME280;67214;47.454;18.966;2023-06-04T06:22:10;100553.99;;;18.13;43.76
77572;BME280;67214;47.454;18.966;2023-06-04T06:24:40;100551.33;;;18.21;42.83
77572;BME280;67214;47.454;18.966;2023-06-04T06:27:07;100558.73;;;18.31;45.36
77572;BME280;67214;47.454;18.966;2023-06-04T06:29:35;100565.13;;;18.30;43.12
77572;BME280;67214;47.454;18.966;2023-06-04T06:32:03;100567.83;;;18.34;42.71
77572;BME280;67214;47.454;18.966;2023-06-04T06:34:30;100580.58;;;18.36;43.18
77572;BME280;67214;47.454;18.966;2023-06-04T06:36:57;100573.53;;;18.39;44.11
77572;BME280;67214;47.454;18.966;2023-06-04T06:39:25;100584.13;;;18.44;44.39
77572;BME280;67214;47.454;18.966;2023-06-04T06:41:52;100582.85;;;18.56;43.69
77572;BME280;67214;47.454;18.966;2023-06-04T06:44:20;100567.94;;;18.66;40.69
77572;BME280;67214;47.454;18.966;2023-06-04T06:46:47;100588.43;;;18.83;41.82
77572;BME280;67214;47.454;18.966;2023-06-04T06:49:16;100586.28;;;18.95;40.19
77572;BME280;67214;47.454;18.966;2023-06-04T06:51:44;100594.86;;;19.15;41.10
77572;BME280;67214;47.454;18.966;2023-06-04T06:54:15;100596.20;;;19.23;41.23
77572;BME280;67214;47.454;18.966;2023-06-04T06:56:43;100598.39;;;19.35;40.08
77572;BME280;67214;47.454;18.966;2023-06-04T06:59:10;100597.91;;;19.48;38.43
77572;BME280;67214;47.454;18.966;2023-06-04T07:01:38;100601.06;;;19.68;39.64
77572;BME280;67214;47.454;18.966;2023-06-04T07:04:05;100602.20;;;19.77;38.14
77572;BME280;67214;47.454;18.966;2023-06-04T07:06:34;100603.94;;;19.58;40.21
77572;BME280;67214;47.454;18.966;2023-06-04T07:09:02;100592.95;;;19.84;40.23
77572;BME280;67214;47.454;18.966;2023-06-04T07:11:32;100606.47;;;20.15;40.84
77572;BME280;67214;47.454;18.966;2023-06-04T07:14:00;100591.59;;;20.35;39.39
77572;BME280;67214;47.454;18.966;2023-06-04T07:16:30;100598.48;;;20.42;38.60
77572;BME280;67214;47.454;18.966;2023-06-04T07:18:57;100598.97;;;20.45;37.70
77572;BME280;67214;47.454;18.966;2023-06-04T07:21:25;100595.68;;;20.62;37.62
77572;BME280;67214;47.454;18.966;2023-06-04T07:23:52;100592.66;;;20.83;36.77
77572;BME280;67214;47.454;18.966;2023-06-04T07:26:20;100588.80;;;21.05;36.70
77572;BME280;67214;47.454;18.966;2023-06-04T07:28:48;100598.88;;;21.15;36.22
77572;BME280;67214;47.454;18.966;2023-06-04T07:31:16;100586.64;;;21.27;38.10
77572;BME280;67214;47.454;18.966;2023-06-04T07:33:44;100591.83;;;21.06;35.84
77572;BME280;67214;47.454;18.966;2023-06-04T07:36:13;100583.03;;;21.12;37.02
77572;BME280;67214;47.454;18.966;2023-06-04T07:38:41;100576.30;;;21.12;37.53
77572;BME280;67214;47.454;18.966;2023-06-04T07:41:09;100599.86;;;21.18;36.43
77572;BME280;67214;47.454;18.966;2023-06-04T07:43:37;100594.64;;;21.16;36.98
77572;BME280;67214;47.454;18.966;2023-06-04T07:46:05;100595.95;;;21.20;36.45
77572;BME280;67214;47.454;18.966;2023-06-04T07:48:32;100584.75;;;21.27;36.32
77572;BME280;67214;47.454;18.966;2023-06-04T07:51:01;100583.20;;;21.33;37.21
77572;BME280;67214;47.454;18.966;2023-06-04T07:53:30;100594.53;;;21.28;36.51
77572;BME280;67214;47.454;18.966;2023-06-04T07:55:58;100598.78;;;21.27;37.24
77572;BME280;67214;47.454;18.966;2023-06-04T07:58:25;100591.05;;;21.43;36.06
77572;BME280;67214;47.454;18.966;2023-06-04T08:00:53;100595.66;;;21.53;37.71
77572;BME280;67214;47.454;18.966;2023-06-04T08:03:21;100597.73;;;21.65;36.23
77572;BME280;67214;47.454;18.966;2023-06-04T08:05:49;100588.36;;;21.57;35.73
77572;BME280;67214;47.454;18.966;2023-06-04T08:08:17;100596.63;;;21.74;35.26
77572;BME280;67214;47.454;18.966;2023-06-04T08:10:44;100599.33;;;21.74;37.72
77572;BME280;67214;47.454;18.966;2023-06-04T08:13:12;100591.91;;;21.72;36.05
77572;BME280;67214;47.454;18.966;2023-06-04T08:15:39;100596.52;;;22.01;36.02
77572;BME280;67214;47.454;18.966;2023-06-04T08:18:07;100595.52;;;22.17;35.44
77572;BME280;67214;47.454;18.966;2023-06-04T08:20:34;100598.95;;;22.11;35.79
77572;BME280;67214;47.454;18.966;2023-06-04T08:23:02;100599.02;;;21.88;34.00
77572;BME280;67214;47.454;18.966;2023-06-04T08:25:30;100604.19;;;21.60;35.27
77572;BME280;67214;47.454;18.966;2023-06-04T08:27:57;100613.44;;;21.47;35.73
77572;BME280;67214;47.454;18.966;2023-06-04T08:30:25;100608.22;;;21.46;36.42
77572;BME280;67214;47.454;18.966;2023-06-04T08:32:54;100614.73;;;21.32;37.13
77572;BME280;67214;47.454;18.966;2023-06-04T08:35:21;100616.05;;;21.18;37.82
77572;BME280;67214;47.454;18.966;2023-06-04T08:37:48;100616.11;;;21.51;36.38
77572;BME280;67214;47.454;18.966;2023-06-04T08:40:16;100612.47;;;21.40;37.05
77572;BME280;67214;47.454;18.966;2023-06-04T08:42:44;100612.11;;;21.24;38.08
77572;BME280;67214;47.454;18.966;2023-06-04T08:45:13;100610.02;;;21.35;36.47
77572;BME280;67214;47.454;18.966;2023-06-04T08:47:44;100595.47;;;21.40;36.91
77572;BME280;67214;47.454;18.966;2023-06-04T08:50:13;100605.29;;;21.32;37.88
77572;BME280;67214;47.454;18.966;2023-06-04T08:52:41;100607.07;;;20.99;38.23
77572;BME280;67214;47.454;18.966;2023-06-04T08:55:11;100607.71;;;21.01;37.46
77572;BME280;67214;47.454;18.966;2023-06-04T08:57:40;100599.11;;;21.01;38.33
77572;BME280;67214;47.454;18.966;2023-06-04T09:00:08;100610.86;;;20.85;38.22
77572;BME280;67214;47.454;18.966;2023-06-04T09:02:36;100614.81;;;20.71;38.13
77572;BME280;67214;47.454;18.966;2023-06-04T09:05:07;100612.71;;;20.54;38.04
77572;BME280;67214;47.454;18.966;2023-06-04T09:07:38;100609.73;;;20.49;38.13
77572;BME280;67214;47.454;18.966;2023-06-04T09:10:08;100613.05;;;20.55;37.97
77572;BME280;67214;47.454;18.966;2023-06-04T09:12:41;100614.73;;;20.56;38.61
77572;BME280;67214;47.454;18.966;2023-06-04T09:15:09;100612.92;;;20.49;39.17
77572;BME280;67214;47.454;18.966;2023-06-04T09:17:37;100616.50;;;20.72;39.61
77572;BME280;67214;47.454;18.966;2023-06-04T09:20:05;100607.80;;;20.88;39.19
77572;BME280;67214;47.454;18.966;2023-06-04T09:22:36;100612.52;;;20.91;38.87
77572;BME280;67214;47.454;18.966;2023-06-04T09:25:06;100616.17;;;20.98;38.75
77572;BME280;67214;47.454;18.966;2023-06-04T09:27:39;100615.33;;;20.97;38.40
77572;BME280;67214;47.454;18.966;2023-06-04T09:30:10;100612.31;;;20.92;39.23
77572;BME280;67214;47.454;18.966;2023-06-04T09:32:37;100613.61;;;21.00;38.90
77572;BME280;67214;47.454;18.966;2023-06-04T09:35:15;100608.41;;;20.99;38.61
77572;BME280;67214;47.454;18.966;2023-06-04T09:37:54;100613.75;;;21.07;38.58
77572;BME280;67214;47.454;18.966;2023-06-04T09:40:23;100603.44;;;21.10;38.27
77572;BME280;67214;47.454;18.966;2023-06-04T09:42:52;100615.06;;;21.11;39.42
77572;BME280;67214;47.454;18.966;2023-06-04T09:45:29;100613.50;;;20.94;39.14
77572;BME280;67214;47.454;18.966;2023-06-04T09:47:59;100615.22;;;20.91;40.30
77572;BME280;67214;47.454;18.966;2023-06-04T09:50:32;100611.48;;;20.92;41.10
77572;BME280;67214;47.454;18.966;2023-06-04T09:53:01;100614.91;;;20.85;40.24
77572;BME280;67214;47.454;18.966;2023-06-04T09:55:29;100619.53;;;20.73;40.52
77572;BME280;67214;47.454;18.966;2023-06-04T09:57:58;100618.85;;;20.71;40.76
77572;BME280;67214;47.454;18.966;2023-06-04T10:00:27;100627.32;;;20.33;39.94
77572;BME280;67214;47.454;18.966;2023-06-04T10:02:59;100612.48;;;20.37;39.85
77572;BME280;67214;47.454;18.966;2023-06-04T10:05:25;100626.48;;;20.24;40.54
77572;BME280;67214;47.454;18.966;2023-06-04T10:07:54;100628.63;;;20.41;41.43
77572;BME280;67214;47.454;18.966;2023-06-04T10:10:25;100631.13;;;20.43;40.65
77572;BME280;67214;47.454;18.966;2023-06-04T10:13:09;100615.78;;;20.47;40.88
77572;BME280;67214;47.454;18.966;2023-06-04T10:15:37;100628.88;;;20.54;41.25
77572;BME280;67214;47.454;18.966;2023-06-04T10:18:05;100624.73;;;20.44;41.84
77572;BME280;67214;47.454;18.966;2023-06-04T10:20:33;100616.75;;;20.54;42.85
77572;BME280;67214;47.454;18.966;2023-06-04T10:23:01;100617.53;;;20.36;42.18
77572;BME280;67214;47.454;18.966;2023-06-04T10:25:30;100623.53;;;20.46;42.67
77572;BME280;67214;47.454;18.966;2023-06-04T10:27:59;100614.28;;;20.49;41.83
77572;BME280;67214;47.454;18.966;2023-06-04T10:30:28;100611.22;;;20.52;42.74
77572;BME280;67214;47.454;18.966;2023-06-04T10:32:57;100613.80;;;20.45;40.75
77572;BME280;67214;47.454;18.966;2023-06-04T10:35:35;100613.98;;;20.39;41.46
77572;BME280;67214;47.454;18.966;2023-06-04T10:38:08;100616.80;;;20.46;41.28
77572;BME280;67214;47.454;18.966;2023-06-04T10:40:37;100620.88;;;20.38;40.20
77572;BME280;67214;47.454;18.966;2023-06-04T10:43:05;100618.98;;;20.47;39.56
77572;BME280;67214;47.454;18.966;2023-06-04T10:45:34;100624.10;;;20.68;39.03
77572;BME280;67214;47.454;18.966;2023-06-04T10:48:02;100618.85;;;20.71;39.05
77572;BME280;67214;47.454;18.966;2023-06-04T10:50:32;100619.94;;;20.88;40.60
77572;BME280;67214;47.454;18.966;2023-06-04T10:53:03;100607.20;;;20.78;36.64
77572;BME280;67214;47.454;18.966;2023-06-04T10:55:31;100612.06;;;20.79;36.73
77572;BME280;67214;47.454;18.966;2023-06-04T10:58:01;100609.31;;;20.87;36.74
77572;BME280;67214;47.454;18.966;2023-06-04T11:00:40;100615.12;;;20.76;37.42
77572;BME280;67214;47.454;18.966;2023-06-04T11:03:10;100623.33;;;20.86;39.20
77572;BME280;67214;47.454;18.966;2023-06-04T11:05:39;100613.51;;;20.63;38.87
77572;BME280;67214;47.454;18.966;2023-06-04T11:08:07;100621.38;;;20.72;39.98
77572;BME280;67214;47.454;18.966;2023-06-04T11:10:38;100613.48;;;20.67;39.51
77572;BME280;67214;47.454;18.966;2023-06-04T11:13:06;100618.50;;;20.78;41.05
77572;BME280;67214;47.454;18.966;2023-06-04T11:15:45;100615.91;;;20.84;40.37
77572;BME280;67214;47.454;18.966;2023-06-04T11:18:14;100620.13;;;20.83;39.25
77572;BME280;67214;47.454;18.966;2023-06-04T11:20:43;100619.14;;;20.80;40.04
77572;BME280;67214;47.454;18.966;2023-06-04T11:23:13;100615.84;;;20.70;40.02
77572;BME280;67214;47.454;18.966;2023-06-04T11:25:40;100613.95;;;20.78;40.03
77572;BME280;67214;47.454;18.966;2023-06-04T11:28:17;100617.74;;;20.88;43.36
77572;BME280;67214;47.454;18.966;2023-06-04T11:31:06;100614.02;;;20.62;40.95
77572;BME280;67214;47.454;18.966;2023-06-04T11:33:14;100617.39;;;20.64;42.08
77572;BME280;67214;47.454;18.966;2023-06-04T11:35:42;100609.45;;;20.36;41.79
77572;BME280;67214;47.454;18.966;2023-06-04T11:38:10;100600.14;;;20.43;42.36
77572;BME280;67214;47.454;18.966;2023-06-04T11:40:37;100616.11;;;20.52;41.84
77572;BME280;67214;47.454;18.966;2023-06-04T11:43:05;100604.13;;;20.55;42.20
77572;BME280;67214;47.454;18.966;2023-06-04T11:45:35;100608.52;;;20.52;44.41
77572;BME280;67214;47.454;18.966;2023-06-04T11:48:05;100605.23;;;20.42;41.51
77572;BME280;67214;47.454;18.966;2023-06-04T11:50:33;100602.70;;;20.40;41.69
77572;BME280;67214;47.454;18.966;2023-06-04T11:53:00;100599.45;;;20.49;41.88
77572;BME280;67214;47.454;18.966;2023-06-04T11:55:27;100615.75;;;20.55;42.25
77572;BME280;67214;47.454;18.966;2023-06-04T11:57:56;100610.51;;;20.62;43.29
77572;BME280;67214;47.454;18.966;2023-06-04T12:00:23;100618.76;;;20.60;44.38
77572;BME280;67214;47.454;18.966;2023-06-04T12:02:52;100618.78;;;20.56;42.77
77572;BME280;67214;47.454;18.966;2023-06-04T12:05:22;100612.04;;;20.56;44.55
77572;BME280;67214;47.454;18.966;2023-06-04T12:07:51;100620.47;;;20.57;45.66
77572;BME280;67214;47.454;18.966;2023-06-04T12:10:19;100616.45;;;20.53;45.80
77572;BME280;67214;47.454;18.966;2023-06-04T12:12:58;100613.91;;;20.52;45.22
77572;BME280;67214;47.454;18.966;2023-06-04T12:15:20;100612.20;;;20.55;45.28
77572;BME280;67214;47.454;18.966;2023-06-04T12:17:52;100609.03;;;20.51;44.22
77572;BME280;67214;47.454;18.966;2023-06-04T12:20:34;100616.02;;;20.68;46.38
77572;BME280;67214;47.454;18.966;2023-06-04T12:23:03;100615.97;;;20.76;46.81
77572;BME280;67214;47.454;18.966;2023-06-04T12:25:31;100612.52;;;20.91;45.61
77572;BME280;67214;47.454;18.966;2023-06-04T12:27:59;100614.82;;;20.98;45.48
77572;BME280;67214;47.454;18.966;2023-06-04T12:30:38;100610.55;;;21.03;44.70
77572;BME280;67214;47.454;18.966;2023-06-04T12:33:07;100614.90;;;21.08;46.97
77572;BME280;67214;47.454;18.966;2023-06-04T12:35:35;100607.34;;;21.04;45.72
77572;BME280;67214;47.454;18.966;2023-06-04T12:38:03;100615.34;;;21.20;45.67
77572;BME280;67214;47.454;18.966;2023-06-04T12:40:31;100606.47;;;21.34;47.35
77572;BME280;67214;47.454;18.966;2023-06-04T12:42:59;100611.42;;;21.45;46.32
77572;BME280;67214;47.454;18.966;2023-06-04T12:45:26;100608.56;;;21.24;45.14
77572;BME280;67214;47.454;18.966;2023-06-04T12:47:54;100599.41;;;21.52;44.46
77572;BME280;67214;47.454;18.966;2023-06-04T12:50:21;100602.75;;;21.68;43.44
77572;BME280;67214;47.454;18.966;2023-06-04T12:52:49;100599.37;;;21.85;42.82